createdAt,value
2022-10-31T00:01:33.374Z,22.00
2022-10-31T00:04:00.798Z,20.00
2022-10-31T00:06:28.761Z,21.07
2022-10-31T00:09:00.871Z,21.80
2022-10-31T00:11:28.878Z,20.33
2022-10-31T00:13:56.187Z,22.63
2022-10-31T00:16:26.815Z,20.10
2022-10-31T00:18:58.682Z,20.13
2022-10-31T00:21:27.026Z,22.27
2022-10-31T00:23:54.315Z,21.37
2022-10-31T00:26:21.995Z,19.20
2022-10-31T00:28:49.545Z,20.93
2022-10-31T00:31:16.701Z,19.93
2022-10-31T00:33:44.905Z,21.27
2022-10-31T00:36:19.168Z,20.33
2022-10-31T00:38:47.315Z,21.00
2022-10-31T00:41:17.235Z,21.40
2022-10-31T00:43:45.010Z,19.03
2022-10-31T00:46:13.994Z,19.67
2022-10-31T00:48:43.290Z,17.93
2022-10-31T00:51:11.469Z,19.57
2022-10-31T00:53:40.070Z,18.30
2022-10-31T00:56:08.337Z,19.20
2022-10-31T00:58:35.556Z,17.80
2022-10-31T01:01:02.803Z,19.87
2022-10-31T01:03:33.771Z,18.90
2022-10-31T01:06:05.839Z,18.73
2022-10-31T01:08:37.298Z,16.57
2022-10-31T01:11:14.792Z,20.20
2022-10-31T01:13:42.456Z,19.57
2022-10-31T01:16:14.573Z,19.23
2022-10-31T01:18:42.026Z,18.97
2022-10-31T01:21:15.985Z,20.10
2022-10-31T01:23:43.202Z,17.80
2022-10-31T01:26:17.268Z,19.80
2022-10-31T01:28:55.718Z,17.00
2022-10-31T01:31:27.568Z,18.63
2022-10-31T01:33:55.660Z,17.50
2022-10-31T01:36:30.081Z,20.00
2022-10-31T01:39:01.361Z,20.33
2022-10-31T01:41:31.952Z,20.30
2022-10-31T01:44:23.127Z,21.17
2022-10-31T01:46:58.253Z,22.33
2022-10-31T01:49:37.073Z,22.90
2022-10-31T01:52:25.826Z,18.37
2022-10-31T01:55:33.741Z,19.90
2022-10-31T01:58:16.013Z,20.43
2022-10-31T02:00:50.595Z,19.13
2022-10-31T02:03:19.961Z,18.63
2022-10-31T02:05:47.626Z,19.53
2022-10-31T02:08:30.913Z,17.87
2022-10-31T02:10:59.860Z,17.57
2022-10-31T02:13:28.863Z,16.83
2022-10-31T02:15:59.574Z,15.60
2022-10-31T02:18:30.662Z,18.73
2022-10-31T02:21:13.112Z,15.47
2022-10-31T02:24:16.403Z,16.77
2022-10-31T02:27:44.273Z,18.03
2022-10-31T02:30:21.684Z,16.03
2022-10-31T02:33:00.554Z,17.73
2022-10-31T02:35:55.594Z,17.70
2022-10-31T02:38:32.393Z,16.80
2022-10-31T02:41:04.428Z,17.40
2022-10-31T02:43:45.106Z,15.93
2022-10-31T02:46:29.606Z,17.27
2022-10-31T02:49:02.313Z,18.07
2022-10-31T02:51:29.916Z,15.67
2022-10-31T02:53:56.929Z,17.47
2022-10-31T02:56:24.047Z,15.83
2022-10-31T02:59:01.611Z,15.77
2022-10-31T03:01:35.328Z,15.07
2022-10-31T03:04:42.498Z,15.87
2022-10-31T03:07:29.355Z,15.60
2022-10-31T03:10:10.005Z,15.47
2022-10-31T03:13:21.351Z,18.33
2022-10-31T03:16:07.376Z,16.23
2022-10-31T03:18:41.101Z,16.80
2022-10-31T03:21:21.621Z,15.50
2022-10-31T03:23:50.913Z,17.43
2022-10-31T03:26:22.377Z,16.53
2022-10-31T03:29:04.479Z,15.27
2022-10-31T03:31:44.375Z,16.17
2022-10-31T03:34:14.595Z,15.87
2022-10-31T03:36:43.692Z,18.63
2022-10-31T03:39:15.403Z,19.03
2022-10-31T03:41:50.900Z,16.80
2022-10-31T03:44:20.796Z,15.97
2022-10-31T03:46:56.256Z,18.20
2022-10-31T03:49:23.772Z,16.23
2022-10-31T03:52:28.726Z,17.53
2022-10-31T03:55:19.861Z,17.40
2022-10-31T03:58:06.723Z,15.03
2022-10-31T04:00:35.074Z,15.17
2022-10-31T04:03:16.688Z,17.03
2022-10-31T04:05:50.417Z,16.53
2022-10-31T04:08:21.677Z,15.33
2022-10-31T04:10:51.164Z,18.27
2022-10-31T04:13:30.403Z,17.10
2022-10-31T04:16:06.394Z,16.70
2022-10-31T04:18:34.130Z,15.47
2022-10-31T04:21:08.075Z,15.60
2022-10-31T04:23:37.255Z,15.70
2022-10-31T04:26:25.630Z,14.17
2022-10-31T04:28:52.802Z,16.00
2022-10-31T04:31:20.309Z,15.90
2022-10-31T04:33:49.539Z,17.70
2022-10-31T04:36:16.810Z,15.93
2022-10-31T04:38:43.889Z,14.90
2022-10-31T04:41:24.204Z,16.27
2022-10-31T04:43:59.204Z,14.73
2022-10-31T04:46:28.095Z,16.43
2022-10-31T04:48:57.484Z,17.00
2022-10-31T04:51:25.015Z,16.57
2022-10-31T04:53:52.622Z,13.77
2022-10-31T04:56:28.415Z,13.83
2022-10-31T04:59:06.078Z,14.80
2022-10-31T05:01:46.737Z,16.00
2022-10-31T05:04:14.006Z,13.17
2022-10-31T05:06:42.085Z,14.40
2022-10-31T05:09:09.442Z,14.37
2022-10-31T05:11:36.481Z,15.70
2022-10-31T05:14:19.178Z,14.73
2022-10-31T05:17:04.793Z,14.27
2022-10-31T05:19:54.622Z,13.73
2022-10-31T05:23:06.591Z,13.90
2022-10-31T05:25:33.751Z,14.03
2022-10-31T05:28:04.549Z,13.47
2022-10-31T05:30:33.096Z,14.03
2022-10-31T05:33:01.919Z,14.50
2022-10-31T05:35:47.759Z,14.80
2022-10-31T05:38:29.650Z,15.67
2022-10-31T05:41:02.889Z,29.70
2022-10-31T05:43:32.320Z,15.93
2022-10-31T05:46:00.791Z,15.27
2022-10-31T05:48:47.857Z,26.63
2022-10-31T05:51:29.770Z,14.60
2022-10-31T05:53:56.903Z,17.60
2022-10-31T05:56:24.894Z,17.17
2022-10-31T05:58:52.154Z,24.80
2022-10-31T06:01:19.240Z,16.40
2022-10-31T06:03:47.127Z,14.53
2022-10-31T06:06:16.684Z,12.57
2022-10-31T06:08:43.927Z,12.63
2022-10-31T06:11:15.666Z,12.60
2022-10-31T06:13:54.563Z,12.60
2022-10-31T06:16:31.158Z,13.57
2022-10-31T06:19:04.082Z,13.87
2022-10-31T06:21:31.789Z,14.33
2022-10-31T06:23:59.145Z,19.40
2022-10-31T06:26:55.170Z,14.93
2022-10-31T06:29:22.612Z,22.87
2022-10-31T06:32:05.679Z,16.07
2022-10-31T06:34:38.759Z,12.80
2022-10-31T06:37:08.486Z,19.10
2022-10-31T06:39:36.072Z,19.83
2022-10-31T06:42:03.757Z,16.57
2022-10-31T06:44:31.915Z,14.47
2022-10-31T06:47:17.469Z,13.47
2022-10-31T06:49:56.878Z,13.70
2022-10-31T06:52:25.789Z,14.20
2022-10-31T06:54:53.729Z,13.40
2022-10-31T06:57:22.120Z,20.30
2022-10-31T06:59:49.892Z,21.10
2022-10-31T07:02:39.789Z,19.50
2022-10-31T07:05:07.349Z,30.17
2022-10-31T07:07:34.380Z,17.80
2022-10-31T07:10:01.628Z,13.90
2022-10-31T07:12:43.455Z,11.70
2022-10-31T07:15:11.885Z,10.80
2022-10-31T07:17:39.065Z,11.10
2022-10-31T07:20:09.652Z,14.60
2022-10-31T07:22:38.606Z,13.47
2022-10-31T07:25:09.417Z,12.37
2022-10-31T07:27:42.789Z,14.13
2022-10-31T07:30:14.093Z,11.40
2022-10-31T07:32:50.056Z,14.07
2022-10-31T07:35:27.567Z,8.97
2022-10-31T07:37:59.311Z,9.53
2022-10-31T07:40:26.929Z,9.00
2022-10-31T07:42:54.903Z,11.93
2022-10-31T07:45:40.729Z,17.70
2022-10-31T07:48:28.015Z,11.90
2022-10-31T07:51:13.526Z,8.57
2022-10-31T07:53:52.874Z,6.83
2022-10-31T07:56:24.910Z,6.67
2022-10-31T07:58:52.757Z,7.93
2022-10-31T08:01:19.813Z,8.40
2022-10-31T08:04:02.639Z,10.60
2022-10-31T08:07:01.432Z,10.60
2022-10-31T08:09:34.634Z,11.60
2022-10-31T08:12:06.706Z,9.40
2022-10-31T08:14:35.781Z,7.47
2022-10-31T08:17:02.875Z,8.17
2022-10-31T08:19:40.134Z,7.47
2022-10-31T08:22:10.294Z,7.73
2022-10-31T08:27:09.469Z,7.20
2022-10-31T08:29:38.502Z,7.40
2022-10-31T08:32:05.944Z,8.07
2022-10-31T08:34:51.775Z,6.83
2022-10-31T08:37:39.035Z,6.03
2022-10-31T08:40:07.763Z,7.17
2022-10-31T08:42:35.982Z,7.20
2022-10-31T08:45:04.273Z,7.50
2022-10-31T08:47:33.327Z,6.80
2022-10-31T08:50:01.110Z,7.07
2022-10-31T08:52:58.719Z,8.03
2022-10-31T08:55:16.689Z,6.10
2022-10-31T08:58:06.935Z,7.53
2022-10-31T09:00:43.753Z,6.43
2022-10-31T09:03:21.770Z,6.83
2022-10-31T09:05:49.663Z,6.60
2022-10-31T09:08:17.578Z,6.03
2022-10-31T09:10:47.413Z,6.90
2022-10-31T09:13:21.268Z,7.10
2022-10-31T09:16:07.380Z,6.83
2022-10-31T09:18:35.747Z,6.60
2022-10-31T09:21:03.081Z,6.47
2022-10-31T09:23:33.097Z,6.00
2022-10-31T09:26:02.789Z,5.80
2022-10-31T09:28:42.770Z,6.53
2022-10-31T09:31:13.010Z,6.40
2022-10-31T09:34:09.338Z,6.20
2022-10-31T09:36:40.074Z,6.00
2022-10-31T09:39:21.138Z,6.43
2022-10-31T09:42:03.020Z,5.20
2022-10-31T09:45:26.576Z,6.40
2022-10-31T09:48:24.496Z,5.67
2022-10-31T09:51:24.582Z,5.57
2022-10-31T09:54:33.755Z,5.30
2022-10-31T09:57:01.880Z,6.17
2022-10-31T09:59:37.179Z,4.97
2022-10-31T10:02:31.835Z,5.53
2022-10-31T10:05:04.995Z,5.70
2022-10-31T10:08:13.541Z,5.50
2022-10-31T10:11:32.569Z,5.33
2022-10-31T10:14:23.233Z,6.60
2022-10-31T10:16:59.046Z,5.60
2022-10-31T10:20:03.137Z,6.27
2022-10-31T10:22:39.042Z,5.97
2022-10-31T10:25:12.081Z,6.43
2022-10-31T10:28:39.266Z,6.77
2022-10-31T10:31:14.638Z,7.40
2022-10-31T10:34:00.753Z,6.50
2022-10-31T10:37:04.563Z,6.93
2022-10-31T10:39:39.884Z,6.20
2022-10-31T10:42:34.906Z,5.83
2022-10-31T10:45:37.045Z,6.00
2022-10-31T10:48:17.044Z,7.00
2022-10-31T10:50:52.551Z,5.80
2022-10-31T10:54:39.255Z,5.67
2022-10-31T10:57:37.541Z,5.97
2022-10-31T11:00:31.322Z,6.43
2022-10-31T11:02:58.730Z,5.80
2022-10-31T11:05:41.802Z,5.90
2022-10-31T11:08:09.318Z,5.70
2022-10-31T11:10:36.986Z,6.50
2022-10-31T11:13:22.989Z,5.90
2022-10-31T11:16:05.741Z,6.30
2022-10-31T11:18:43.257Z,5.97
2022-10-31T11:21:25.657Z,5.40
2022-10-31T11:24:24.317Z,5.50
2022-10-31T11:26:52.544Z,5.20
2022-10-31T11:29:26.053Z,5.90
2022-10-31T11:31:57.003Z,8.00
2022-10-31T11:34:51.360Z,6.00
2022-10-31T11:37:36.200Z,5.80
2022-10-31T11:40:07.434Z,6.40
2022-10-31T11:42:42.567Z,6.10
2022-10-31T11:45:37.727Z,5.07
2022-10-31T11:48:21.936Z,6.07
2022-10-31T11:50:53.884Z,5.60
2022-10-31T11:53:30.205Z,6.27
2022-10-31T11:56:17.672Z,5.97
2022-10-31T11:58:44.888Z,5.30
2022-10-31T12:01:28.745Z,6.27
2022-10-31T12:04:08.067Z,6.10
2022-10-31T12:06:44.290Z,5.90
2022-10-31T12:09:27.131Z,6.10
2022-10-31T12:12:12.734Z,6.53
2022-10-31T12:15:07.187Z,5.87
2022-10-31T12:18:04.750Z,5.87
2022-10-31T12:20:52.703Z,4.73
2022-10-31T12:24:01.485Z,5.30
2022-10-31T12:26:37.649Z,5.30
2022-10-31T12:29:34.884Z,5.30
2022-10-31T12:32:30.305Z,5.17
2022-10-31T12:35:24.249Z,5.40
2022-10-31T12:38:09.451Z,9.57
2022-10-31T12:41:01.817Z,5.30
2022-10-31T12:43:44.752Z,4.80
2022-10-31T12:47:04.464Z,4.43
2022-10-31T12:49:55.229Z,8.97
2022-10-31T12:53:00.281Z,5.10
2022-10-31T12:55:39.672Z,5.93
2022-10-31T12:58:38.181Z,4.43
2022-10-31T13:01:13.646Z,4.60
2022-10-31T13:04:17.170Z,4.33
2022-10-31T13:06:54.010Z,4.40
2022-10-31T13:09:31.836Z,4.00
2022-10-31T13:12:08.412Z,4.20
2022-10-31T13:14:44.371Z,4.10
2022-10-31T13:17:27.443Z,4.90
2022-10-31T13:20:05.191Z,3.90
2022-10-31T13:22:36.757Z,4.00
2022-10-31T13:25:09.868Z,4.93
2022-10-31T13:28:01.841Z,4.43
2022-10-31T13:30:33.797Z,3.70
2022-10-31T13:33:35.370Z,4.63
2022-10-31T13:36:18.171Z,4.67
2022-10-31T13:39:11.583Z,4.67
2022-10-31T13:42:25.100Z,4.43
2022-10-31T13:44:52.160Z,4.27
2022-10-31T13:47:28.341Z,4.50
2022-10-31T13:50:20.916Z,6.93
2022-10-31T13:52:48.456Z,4.47
2022-10-31T13:55:45.097Z,4.53
2022-10-31T13:58:38.692Z,4.70
2022-10-31T14:01:17.020Z,4.67
2022-10-31T14:04:12.410Z,5.30
2022-10-31T14:06:39.600Z,5.07
2022-10-31T14:09:07.384Z,7.10
2022-10-31T14:11:37.152Z,4.83
2022-10-31T14:14:12.372Z,4.50
2022-10-31T14:16:44.261Z,4.90
2022-10-31T14:19:22.139Z,4.70
2022-10-31T14:21:51.208Z,4.10
2022-10-31T14:24:24.393Z,5.20
2022-10-31T14:27:16.148Z,4.90
2022-10-31T14:29:46.617Z,5.60
2022-10-31T14:32:27.670Z,5.20
2022-10-31T14:34:58.440Z,5.53
2022-10-31T14:38:08.597Z,5.80
2022-10-31T14:41:25.318Z,5.23
2022-10-31T14:44:40.135Z,5.87
2022-10-31T14:47:16.113Z,7.33
2022-10-31T14:50:26.997Z,6.83
2022-10-31T14:52:58.784Z,6.63
2022-10-31T14:55:27.395Z,5.37
2022-10-31T14:58:04.115Z,5.63
2022-10-31T15:00:34.166Z,5.87
2022-10-31T15:03:26.238Z,7.80
2022-10-31T15:05:57.840Z,6.77
2022-10-31T15:08:44.994Z,6.00
2022-10-31T15:11:20.078Z,7.70
2022-10-31T15:13:58.258Z,7.50
2022-10-31T15:16:36.935Z,10.60
2022-10-31T15:19:11.839Z,9.67
2022-10-31T15:21:48.318Z,15.00
2022-10-31T15:24:19.669Z,14.27
2022-10-31T15:26:52.878Z,38.40
2022-10-31T15:29:23.734Z,19.80
2022-10-31T15:31:55.811Z,13.10
2022-10-31T15:34:43.086Z,12.33
2022-10-31T15:37:20.638Z,10.30
2022-10-31T15:39:49.730Z,8.37
2022-10-31T15:42:31.253Z,9.70
2022-10-31T15:45:24.933Z,8.50
2022-10-31T15:48:05.277Z,9.90
2022-10-31T15:50:38.766Z,10.67
2022-10-31T15:53:12.526Z,10.10
2022-10-31T15:56:06.056Z,9.87
2022-10-31T15:58:42.759Z,12.20
2022-10-31T16:01:25.406Z,12.50
2022-10-31T16:04:04.584Z,13.23
2022-10-31T16:06:34.421Z,12.73
2022-10-31T16:09:01.714Z,12.37
2022-10-31T16:11:40.304Z,13.03
2022-10-31T16:14:11.655Z,12.50
2022-10-31T16:16:47.416Z,15.67
2022-10-31T16:19:25.061Z,13.43
2022-10-31T16:21:57.360Z,18.23
2022-10-31T16:24:30.254Z,18.17
2022-10-31T16:27:24.435Z,18.77
2022-10-31T16:29:51.638Z,21.00
2022-10-31T16:32:38.562Z,21.33
2022-10-31T16:35:26.921Z,19.90
2022-10-31T16:37:54.752Z,26.27
2022-10-31T16:40:21.820Z,26.37
2022-10-31T16:42:50.500Z,43.03
2022-10-31T16:45:27.213Z,40.03
2022-10-31T16:47:54.652Z,30.30
2022-10-31T16:50:24.147Z,30.80
2022-10-31T16:53:12.928Z,23.77
2022-10-31T16:55:58.214Z,23.93
2022-10-31T16:58:36.770Z,31.57
2022-10-31T17:01:07.065Z,23.20
2022-10-31T17:03:34.514Z,25.47
2022-10-31T17:06:03.044Z,22.23
2022-10-31T17:08:31.017Z,26.13
2022-10-31T17:10:59.517Z,24.77
2022-10-31T17:13:31.321Z,24.53
2022-10-31T17:16:01.841Z,23.60
2022-10-31T17:18:30.943Z,20.63
2022-10-31T17:21:00.785Z,16.90
2022-10-31T17:23:28.857Z,18.77
2022-10-31T17:25:58.647Z,24.90
2022-10-31T17:28:31.802Z,33.70
2022-10-31T17:30:59.493Z,43.43
2022-10-31T17:33:27.147Z,35.93
2022-10-31T17:35:54.543Z,34.30
2022-10-31T17:38:21.885Z,33.40
2022-10-31T17:43:21.030Z,30.90
2022-10-31T17:45:48.035Z,30.70
2022-10-31T17:48:15.065Z,33.80
2022-10-31T17:50:44.989Z,33.80
2022-10-31T17:53:12.009Z,31.23
2022-10-31T17:55:39.047Z,24.40
2022-10-31T17:58:06.145Z,22.83
2022-10-31T18:00:34.188Z,23.00
2022-10-31T18:03:04.884Z,22.07
2022-10-31T18:05:32.396Z,20.13
2022-10-31T18:08:03.732Z,20.40
2022-10-31T18:10:34.528Z,23.00
2022-10-31T18:13:01.822Z,25.67
2022-10-31T18:15:33.804Z,45.67
2022-10-31T18:18:01.064Z,39.90
2022-10-31T18:20:30.889Z,35.90
2022-10-31T18:22:57.931Z,33.77
2022-10-31T18:25:25.041Z,37.93
2022-10-31T18:27:52.046Z,34.40
2022-10-31T18:30:19.053Z,34.80
2022-10-31T18:32:49.568Z,29.30
2022-10-31T18:35:16.648Z,25.80
2022-10-31T18:37:43.979Z,25.50
2022-10-31T18:40:13.520Z,24.83
2022-10-31T18:42:40.626Z,31.20
2022-10-31T18:45:11.993Z,28.77
2022-10-31T18:47:55.302Z,26.63
2022-10-31T18:50:22.369Z,26.00
2022-10-31T18:52:49.390Z,28.73
2022-10-31T18:55:16.677Z,32.70
2022-10-31T18:57:43.734Z,36.57
2022-10-31T19:00:11.419Z,35.83
2022-10-31T19:02:39.468Z,34.43
2022-10-31T19:05:06.895Z,36.00
2022-10-31T19:07:33.978Z,35.17
2022-10-31T19:10:01.067Z,39.43
2022-10-31T19:12:28.045Z,39.70
2022-10-31T19:14:55.367Z,36.07
2022-10-31T19:17:25.494Z,36.60
2022-10-31T19:19:52.599Z,36.23
2022-10-31T19:22:19.725Z,36.70
2022-10-31T19:24:46.881Z,36.63
2022-10-31T19:27:13.905Z,34.10
2022-10-31T19:29:42.301Z,30.97
2022-10-31T19:32:09.709Z,27.37
2022-10-31T19:34:36.863Z,27.43
2022-10-31T19:37:03.984Z,28.43
2022-10-31T19:39:31.078Z,31.40
2022-10-31T19:41:58.175Z,30.57
2022-10-31T19:44:25.466Z,33.00
2022-10-31T19:46:53.789Z,32.97
2022-10-31T19:49:21.600Z,31.03
2022-10-31T19:51:48.676Z,29.83
2022-10-31T19:54:15.830Z,25.60
2022-10-31T19:56:43.023Z,31.73
2022-10-31T19:59:10.206Z,31.93
2022-10-31T20:01:37.500Z,30.57
2022-10-31T20:04:04.802Z,25.93
2022-10-31T20:06:37.293Z,24.70
2022-10-31T20:09:08.596Z,22.70
2022-10-31T20:11:38.174Z,20.83
2022-10-31T20:14:06.585Z,20.83
2022-10-31T20:16:33.759Z,19.40
2022-10-31T20:19:01.120Z,23.20
2022-10-31T20:21:31.943Z,19.60
2022-10-31T20:24:02.596Z,20.80
2022-10-31T20:26:31.933Z,19.30
2022-10-31T20:29:00.698Z,18.40
2022-10-31T20:31:33.944Z,15.80
2022-10-31T20:34:01.305Z,15.83
2022-10-31T20:36:31.597Z,14.57
2022-10-31T20:39:00.264Z,17.13
2022-10-31T20:41:29.840Z,16.00
2022-10-31T20:43:58.310Z,15.47
2022-10-31T20:46:27.361Z,16.97
2022-10-31T20:48:57.299Z,15.23
2022-10-31T20:51:28.324Z,17.03
2022-10-31T20:53:57.737Z,16.47
2022-10-31T20:56:27.449Z,16.00
2022-10-31T20:58:56.254Z,15.90
2022-10-31T21:01:30.067Z,14.33
2022-10-31T21:03:58.965Z,13.23
2022-10-31T21:06:26.848Z,14.40
2022-10-31T21:08:54.150Z,15.13
2022-10-31T21:11:24.274Z,16.17
2022-10-31T21:13:52.122Z,15.23
2022-10-31T21:16:23.602Z,16.67
2022-10-31T21:18:51.968Z,16.20
2022-10-31T21:21:28.895Z,15.87
2022-10-31T21:24:13.447Z,16.13
2022-10-31T21:26:45.147Z,15.60
2022-10-31T21:29:13.823Z,17.63
2022-10-31T21:31:42.089Z,17.90
2022-10-31T21:34:10.014Z,17.23
2022-10-31T21:36:37.969Z,16.83
2022-10-31T21:39:07.825Z,17.13
2022-10-31T21:41:35.221Z,15.37
2022-10-31T21:44:02.331Z,16.67
2022-10-31T21:46:32.323Z,17.30
2022-10-31T21:49:02.159Z,16.23
2022-10-31T21:51:32.645Z,15.97
2022-10-31T21:54:18.991Z,16.17
2022-10-31T21:56:46.341Z,15.53
2022-10-31T21:59:13.794Z,16.60
2022-10-31T22:01:41.302Z,17.30
2022-10-31T22:04:08.661Z,16.43
2022-10-31T22:06:36.562Z,17.10
2022-10-31T22:09:07.369Z,16.37
2022-10-31T22:11:35.061Z,18.13
2022-10-31T22:14:02.876Z,19.33
2022-10-31T22:16:33.660Z,19.50
2022-10-31T22:19:05.453Z,20.87
2022-10-31T22:21:46.536Z,21.10
2022-10-31T22:24:15.237Z,21.40
2022-10-31T22:26:42.582Z,21.53
2022-10-31T22:29:17.428Z,21.67
2022-10-31T22:31:50.599Z,21.57
2022-10-31T22:34:20.581Z,23.80
2022-10-31T22:36:47.844Z,25.30
2022-10-31T22:39:15.300Z,24.10
2022-10-31T22:41:42.543Z,25.37
2022-10-31T22:44:10.031Z,23.77
2022-10-31T22:46:40.022Z,25.00
2022-10-31T22:49:14.717Z,24.77
2022-10-31T22:51:43.286Z,24.60
2022-10-31T22:54:18.710Z,24.53
2022-10-31T22:56:46.452Z,27.13
2022-10-31T22:59:15.702Z,28.37
2022-10-31T23:01:46.634Z,26.10
2022-10-31T23:04:16.383Z,26.00
2022-10-31T23:06:44.434Z,27.40
2022-10-31T23:09:15.264Z,27.60
2022-10-31T23:11:43.128Z,25.97
2022-10-31T23:14:18.595Z,30.80
2022-10-31T23:16:55.478Z,29.23
2022-10-31T23:19:40.676Z,26.73
2022-10-31T23:22:07.822Z,27.87
2022-10-31T23:24:42.853Z,27.43
2022-10-31T23:27:17.220Z,28.87
2022-10-31T23:29:48.541Z,27.00
2022-10-31T23:32:31.840Z,26.50
2022-10-31T23:35:06.284Z,26.70
2022-10-31T23:37:36.516Z,26.83
2022-10-31T23:40:05.389Z,25.67
2022-10-31T23:42:32.445Z,27.63
2022-10-31T23:44:59.495Z,23.90
2022-10-31T23:47:26.644Z,24.07
2022-10-31T23:49:53.759Z,22.13
2022-10-31T23:52:20.961Z,22.43
2022-10-31T23:54:48.151Z,22.20
2022-10-31T23:57:16.826Z,22.93
2022-10-31T23:59:44.230Z,22.17
